1870 Hurricane NOT_NAMED (1870310N28324)


IBTrACS version v04r00. Visit IBTrACS website for data access.
Please direct all questions to the IBTrACS Q and A forum

Storm track - Intensity - Wind Radii - Intensity Data - Source Data - All data

Summary Information

Storm ID 1870310N28324
Start Nov 5 12Z
Max Intensity 65 kt (Nov 9 06Z)
End Nov 16 12Z
ATCF IDs
Track status Best track data.

Storm track plot

Map of storm track

Intensity plots

Map of storm track

Radial wind information

No radial wind information for this storm


Position and Intensity Table

BASIN ISO_TIME_________ NATURE LAT LON MLC WIND
degrees north degrees east kts
NA 1870-11-05 12:00:00 TS 28.00 -36.00 30
NA 15:00:00 TS 27.75 -36.51 30
NA 18:00:00 TS 27.50 -37.00 30
NA 21:00:00 TS 27.25 -37.46 32
NA 1870-11-06 00:00:00 TS 27.00 -37.90 35
NA 03:00:00 TS 26.75 -38.34 35
NA 06:00:00 TS 26.50 -38.80 35
NA 09:00:00 TS 26.22 -39.28 37
NA 12:00:00 TS 26.00 -39.80 40
NA 15:00:00 TS 25.92 -40.38 40
NA 18:00:00 TS 25.90 -41.00 40
NA 21:00:00 TS 25.84 -41.60 42
NA 1870-11-07 00:00:00 TS 25.80 -42.20 45
NA 03:00:00 TS 25.79 -42.81 45
NA 06:00:00 TS 25.80 -43.40 45
NA 09:00:00 TS 25.79 -44.00 45
NA 12:00:00 TS 25.80 -44.50 45
NA 15:00:00 TS 25.86 -44.80 45
NA 18:00:00 TS 26.00 -45.00 45
NA 21:00:00 TS 26.23 -45.25 47
NA 1870-11-08 00:00:00 TS 26.50 -45.50 50
NA 03:00:00 TS 26.75 -45.75 50
NA 06:00:00 TS 27.00 -46.00 50
NA 09:00:00 TS 27.17 -46.38 52
NA 12:00:00 TS 27.50 -46.50 55
NA 15:00:00 TS 28.22 -45.98 57
NA 18:00:00 TS 29.10 -45.20 60
NA 21:00:00 TS 29.90 -44.60 60
NA 1870-11-09 00:00:00 TS 30.70 -44.00 60
NA 03:00:00 TS 31.51 -43.35 62
NA 06:00:00 TS 32.30 -42.70 65
NA 09:00:00 TS 33.10 -42.08 65
NA 12:00:00 TS 33.80 -41.50 65
NA 15:00:00 TS 34.29 -40.98 65
NA 18:00:00 TS 34.70 -40.50 65
NA 21:00:00 TS 35.15 -40.00 65
NA 1870-11-10 00:00:00 TS 35.60 -39.50 65
NA 03:00:00 TS 36.04 -39.00 65
NA 06:00:00 TS 36.50 -38.50 65
NA 09:00:00 TS 36.99 -38.00 65
NA 12:00:00 TS 37.50 -37.50 65
NA 15:00:00 TS 38.00 -37.00 65
NA 18:00:00 TS 38.50 -36.50 65
NA 21:00:00 TS 39.00 -36.00 60
NA 1870-11-11 00:00:00 TS 39.50 -35.50 55
NA 03:00:00 TS 40.10 -34.96 50
NA 06:00:00 TS 40.50 -34.50 45
NA 09:00:00 TS 40.47 -34.25 42
NA 12:00:00 ET 40.20 -34.10 40
NA 15:00:00 ET 39.94 -33.90 40
NA 18:00:00 ET 39.60 -33.70 40
NA 21:00:00 ET 39.21 -33.50 40
NA 1870-11-12 00:00:00 ET 38.80 -33.30 40
NA 03:00:00 ET 38.39 -33.10 40
NA 06:00:00 ET 38.00 -32.90 40
NA 09:00:00 ET 37.66 -32.78 40
NA 12:00:00 ET 37.30 -32.50 40
NA 15:00:00 ET 36.87 -31.83 40
NA 18:00:00 ET 36.40 -31.00 40
NA 21:00:00 ET 36.06 -30.49 40
NA 1870-11-13 00:00:00 ET 35.50 -29.50 40
NA 03:00:00 ET 34.20 -27.26 40
NA 06:00:00 ET 33.00 -25.00 40
NA 09:00:00 ET 32.77 -23.82 40
NA 12:00:00 ET 33.00 -23.00 40
NA 15:00:00 ET 33.20 -22.00 40
NA 18:00:00 ET 33.50 -21.00 40
NA 21:00:00 ET 33.80 -20.00 40
NA 1870-11-14 00:00:00 ET 34.10 -19.00 40
NA 03:00:00 ET 34.48 -17.93 40
NA 06:00:00 ET 34.60 -17.00 40
NA 09:00:00 ET 34.06 -16.38 40
NA 12:00:00 ET 33.50 -16.00 40
NA 15:00:00 ET 33.58 -15.71 40
NA 18:00:00 ET 33.90 -15.50 40
NA 21:00:00 ET 34.13 -15.25 40
NA 1870-11-15 00:00:00 ET 34.40 -15.00 40
NA 03:00:00 ET 34.69 -14.75 40
NA 06:00:00 ET 35.00 -14.50 40
NA 09:00:00 ET 35.30 -14.25 40
NA 12:00:00 ET 35.60 -14.00 40
NA 15:00:00 ET 35.90 -13.75 40
NA 18:00:00 ET 36.20 -13.50 40
NA 21:00:00 ET 36.50 -13.25 40
NA 1870-11-16 00:00:00 ET 36.80 -13.00 40
NA 03:00:00 ET 37.10 -12.75 40
NA 06:00:00 ET 37.40 -12.50 40
NA 09:00:00 ET 37.70 -12.25 40
NA 12:00:00 ET 38.00 -12.00 40

Source Information

Agency Information
USA
TOKYO
CMA
HKO
NEWDELHI
REUNION
BOM
NADI
WELLINGTON
DS824
TD9636
TD9635
NEUMANN
MLC

All available IBTrACS Data

SEASON BASIN SUBBASIN ISO_TIME_________ NATURE LAT LON DIST2LAND LANDFALL IFLAG USA SSHS MLC LAT MLC LON MLC CLASS MLC WIND STORM SPEED STORM DIR
Year degrees north degrees east km km 1 degrees north degrees east kts kts degrees
1870 NA NA 1870-11-05 12:00:00 TS 28.00 -36.00 1878 1878 _____________O -1 28.00 -36.00 TD 30 10 241
1870 NA NA 15:00:00 TS 27.75 -36.51 1929 1929 _____________P -1 27.75 -36.51 TD 30 10 241
1870 NA NA 18:00:00 TS 27.50 -37.00 1982 1982 _____________O -1 27.50 -37.00 TD 30 10 239
1870 NA NA 21:00:00 TS 27.25 -37.46 2036 2036 _____________P -1 27.25 -37.46 TD 32 9 238
1870 NA NA 1870-11-06 00:00:00 TS 27.00 -37.90 2078 2078 _____________O -1 27.00 -37.90 TS 35 9 238
1870 NA NA 03:00:00 TS 26.75 -38.34 2123 2123 _____________P -1 26.75 -38.34 TS 35 9 238
1870 NA NA 06:00:00 TS 26.50 -38.80 2175 2175 _____________O -1 26.50 -38.80 TS 35 10 238
1870 NA NA 09:00:00 TS 26.22 -39.28 2230 2230 _____________P -1 26.22 -39.28 TS 37 10 241
1870 NA NA 12:00:00 TS 26.00 -39.80 2284 2284 _____________O -1 26.00 -39.80 TS 40 10 253
1870 NA NA 15:00:00 TS 25.92 -40.38 2345 2345 _____________P -1 25.92 -40.38 TS 40 11 265
1870 NA NA 18:00:00 TS 25.90 -41.00 2403 2403 _____________O -1 25.90 -41.00 TS 40 11 266
1870 NA NA 21:00:00 TS 25.84 -41.60 2464 2464 _____________P -1 25.84 -41.60 TS 42 11 265
1870 NA NA 1870-11-07 00:00:00 TS 25.80 -42.20 2511 2485 _____________O -1 25.80 -42.20 TS 45 11 267
1870 NA NA 03:00:00 TS 25.79 -42.81 2485 2427 _____________P -1 25.79 -42.81 TS 45 11 270
1870 NA NA 06:00:00 TS 25.80 -43.40 2427 2369 _____________O -1 25.80 -43.40 TS 45 11 270
1870 NA NA 09:00:00 TS 25.79 -44.00 2369 2321 _____________P -1 25.79 -44.00 TS 45 10 270
1870 NA NA 12:00:00 TS 25.80 -44.50 2321 2292 _____________O -1 25.80 -44.50 TS 45 7 276
1870 NA NA 15:00:00 TS 25.86 -44.80 2296 2280 _____________P -1 25.86 -44.80 TS 45 5 294
1870 NA NA 18:00:00 TS 26.00 -45.00 2280 2264 _____________O -1 26.00 -45.00 TS 45 5 312
1870 NA NA 21:00:00 TS 26.23 -45.25 2268 2250 _____________P -1 26.23 -45.25 TS 47 7 318
1870 NA NA 1870-11-08 00:00:00 TS 26.50 -45.50 2250 2239 _____________O -1 26.50 -45.50 TS 50 7 319
1870 NA NA 03:00:00 TS 26.75 -45.75 2230 2223 _____________P -1 26.75 -45.75 TS 50 7 318
1870 NA NA 06:00:00 TS 27.00 -46.00 2223 2195 _____________O -1 27.00 -46.00 TS 50 7 307
1870 NA NA 09:00:00 TS 27.17 -46.38 2195 2186 _____________P -1 27.17 -46.38 TS 52 7 318
1870 NA NA 12:00:00 TS 27.50 -46.50 2199 2142 _____________O -1 27.50 -46.50 TS 55 11 19
1870 NA NA 15:00:00 TS 28.22 -45.98 2142 2068 _____________P -1 28.22 -45.98 TS 57 20 36
1870 NA NA 18:00:00 TS 29.10 -45.20 2068 2001 _____________O -1 29.10 -45.20 TS 60 21 36
1870 NA NA 21:00:00 TS 29.90 -44.60 2001 1937 _____________P -1 29.90 -44.60 TS 60 19 33
1870 NA NA 1870-11-09 00:00:00 TS 30.70 -44.00 1937 1877 _____________O -1 30.70 -44.00 TS 60 19 34
1870 NA NA 03:00:00 TS 31.51 -43.35 1881 1824 _____________P -1 31.51 -43.35 TS 62 20 35
1870 NA NA 06:00:00 TS 32.30 -42.70 1824 1770 _____________O -1 32.30 -42.70 HU 65 19 34
1870 NA NA 09:00:00 TS 33.10 -42.08 1770 1730 _____________P -1 33.10 -42.08 HU 65 18 34
1870 NA NA 12:00:00 TS 33.80 -41.50 1730 1708 _____________O -1 33.80 -41.50 HU 65 15 37
1870 NA NA 15:00:00 TS 34.29 -40.98 1708 1691 _____________P -1 34.29 -40.98 HU 65 12 43
1870 NA NA 18:00:00 TS 34.70 -40.50 1696 1681 _____________O -1 34.70 -40.50 HU 65 12 43
1870 NA NA 21:00:00 TS 35.15 -40.00 1687 1664 _____________P -1 35.15 -40.00 HU 65 12 42
1870 NA NA 1870-11-10 00:00:00 TS 35.60 -39.50 1670 1659 _____________O -1 35.60 -39.50 HU 65 12 42
1870 NA NA 03:00:00 TS 36.04 -39.00 1664 1652 _____________P -1 36.04 -39.00 HU 65 12 42
1870 NA NA 06:00:00 TS 36.50 -38.50 1652 1643 _____________O -1 36.50 -38.50 HU 65 12 40
1870 NA NA 09:00:00 TS 36.99 -38.00 1643 1635 _____________P -1 36.99 -38.00 HU 65 13 39
1870 NA NA 12:00:00 TS 37.50 -37.50 1635 1629 _____________O -1 37.50 -37.50 HU 65 13 38
1870 NA NA 15:00:00 TS 38.00 -37.00 1629 1625 _____________P -1 38.00 -37.00 HU 65 13 38
1870 NA NA 18:00:00 TS 38.50 -36.50 1625 1624 _____________O -1 38.50 -36.50 HU 65 13 38
1870 NA NA 21:00:00 TS 39.00 -36.00 1624 1624 _____________P -1 39.00 -36.00 HU 60 13 38
1870 NA NA 1870-11-11 00:00:00 TS 39.50 -35.50 1625 1620 _____________O -1 39.50 -35.50 TS 55 14 36
1870 NA NA 03:00:00 TS 40.10 -34.96 1622 1622 _____________P -1 40.10 -34.96 TS 50 13 37
1870 NA NA 06:00:00 TS 40.50 -34.50 1633 1633 _____________O -1 40.50 -34.50 TS 45 7 55
1870 NA NA 09:00:00 TS 40.47 -34.25 1647 1647 _____________P -1 40.47 -34.25 TS 42 4 135
1870 NA NA 12:00:00 ET 40.20 -34.10 1680 1680 _____________O -1 40.20 -34.10 EX 40 6 153
1870 NA NA 15:00:00 ET 39.94 -33.90 1713 1713 _____________P -1 39.94 -33.90 EX 40 7 153
1870 NA NA 18:00:00 ET 39.60 -33.70 1745 1745 _____________O -1 39.60 -33.70 EX 40 8 157
1870 NA NA 21:00:00 ET 39.21 -33.50 1785 1785 _____________P -1 39.21 -33.50 EX 40 9 159
1870 NA NA 1870-11-12 00:00:00 ET 38.80 -33.30 1824 1824 _____________O -1 38.80 -33.30 EX 40 9 159
1870 NA NA 03:00:00 ET 38.39 -33.10 1864 1841 _____________P -1 38.39 -33.10 EX 40 9 159
1870 NA NA 06:00:00 ET 38.00 -32.90 1841 1816 _____________O -1 38.00 -32.90 EX 40 8 161
1870 NA NA 09:00:00 ET 37.66 -32.78 1816 1771 _____________P -1 37.66 -32.78 EX 40 8 156
1870 NA NA 12:00:00 ET 37.30 -32.50 1771 1703 _____________O -1 37.30 -32.50 EX 40 11 136
1870 NA NA 15:00:00 ET 36.87 -31.83 1695 1606 _____________P -1 36.87 -31.83 EX 40 15 127
1870 NA NA 18:00:00 ET 36.40 -31.00 1606 1550 _____________O -1 36.40 -31.00 EX 40 13 127
1870 NA NA 21:00:00 ET 36.06 -30.49 1550 1452 _____________P -1 36.06 -30.49 EX 40 15 127
1870 NA NA 1870-11-13 00:00:00 ET 35.50 -29.50 1439 1206 _____________O -1 35.50 -29.50 EX 40 32 125
1870 NA NA 03:00:00 ET 34.20 -27.26 1193 950 _____________P -1 34.20 -27.26 EX 40 45 124
1870 NA NA 06:00:00 ET 33.00 -25.00 942 844 _____________O -1 33.00 -25.00 EX 40 32 116
1870 NA NA 09:00:00 ET 32.77 -23.82 836 790 _____________P -1 32.77 -23.82 EX 40 17 90
1870 NA NA 12:00:00 ET 33.00 -23.00 790 744 _____________O -1 33.00 -23.00 EX 40 16 74
1870 NA NA 15:00:00 ET 33.20 -22.00 738 706 _____________P -1 33.20 -22.00 EX 40 17 73
1870 NA NA 18:00:00 ET 33.50 -21.00 704 683 _____________O -1 33.50 -21.00 EX 40 18 70
1870 NA NA 21:00:00 ET 33.80 -20.00 682 668 _____________P -1 33.80 -20.00 EX 40 18 70
1870 NA NA 1870-11-14 00:00:00 ET 34.10 -19.00 671 668 _____________O -1 34.10 -19.00 EX 40 18 68
1870 NA NA 03:00:00 ET 34.48 -17.93 684 680 _____________P -1 34.48 -17.93 EX 40 17 73
1870 NA NA 06:00:00 ET 34.60 -17.00 682 624 _____________O -1 34.60 -17.00 EX 40 13 108
1870 NA NA 09:00:00 ET 34.06 -16.38 624 558 _____________P -1 34.06 -16.38 EX 40 14 143
1870 NA NA 12:00:00 ET 33.50 -16.00 558 558 _____________O -1 33.50 -16.00 EX 40 7 130
1870 NA NA 15:00:00 ET 33.58 -15.71 569 569 _____________P -1 33.58 -15.71 EX 40 6 46
1870 NA NA 18:00:00 ET 33.90 -15.50 596 581 _____________O -1 33.90 -15.50 EX 40 7 35
1870 NA NA 21:00:00 ET 34.13 -15.25 575 568 _____________P -1 34.13 -15.25 EX 40 6 40
1870 NA NA 1870-11-15 00:00:00 ET 34.40 -15.00 568 559 _____________O -1 34.40 -15.00 EX 40 7 37
1870 NA NA 03:00:00 ET 34.69 -14.75 556 541 _____________P -1 34.69 -14.75 EX 40 7 34
1870 NA NA 06:00:00 ET 35.00 -14.50 541 511 _____________O -1 35.00 -14.50 EX 40 7 34
1870 NA NA 09:00:00 ET 35.30 -14.25 502 473 _____________P -1 35.30 -14.25 EX 40 7 34
1870 NA NA 12:00:00 ET 35.60 -14.00 473 445 _____________O -1 35.60 -14.00 EX 40 7 34
1870 NA NA 15:00:00 ET 35.90 -13.75 436 410 _____________P -1 35.90 -13.75 EX 40 7 34
1870 NA NA 18:00:00 ET 36.20 -13.50 410 386 _____________O -1 36.20 -13.50 EX 40 7 34
1870 NA NA 21:00:00 ET 36.50 -13.25 377 355 _____________P -1 36.50 -13.25 EX 40 7 34
1870 NA NA 1870-11-16 00:00:00 ET 36.80 -13.00 355 336 _____________O -1 36.80 -13.00 EX 40 7 34
1870 NA NA 03:00:00 ET 37.10 -12.75 327 304 _____________P -1 37.10 -12.75 EX 40 7 34
1870 NA NA 06:00:00 ET 37.40 -12.50 304 272 _____________O -1 37.40 -12.50 EX 40 7 34
1870 NA NA 09:00:00 ET 37.70 -12.25 272 234 _____________P -1 37.70 -12.25 EX 40 7 33
1870 NA NA 12:00:00 ET 38.00 -12.00 234 _____________O -1 38.00 -12.00 EX 40 7 33